Time;durP1;ratioP1;P1;durP2;ratioP2;P2;SDS_P1;SDS_P2;PMS_P1;PMS_P2;Temp;Humidity;BMP_temperature;BMP_pressure;BME280_temperature;BME280_humidity;BME280_pressure;Samples;Min_cycle;Max_cycle;Signal;HPM_P1;HPM_P2
2022/06/03 00:02:14;;;;;;;13.50;7.28;;;;;;;;;;5069170;28;20514;-76
2022/06/03 00:04:53;;;;;;;12.18;7.85;;;;;;;;;;5067480;28;20074;-86
2022/06/03 00:07:39;;;;;;;13.55;6.93;;;;;;;;;;5077063;28;20382;-76
2022/06/03 00:10:24;;;;;;;17.90;7.32;;;;;;;;;;5058269;28;20028;-77
2022/06/03 00:12:50;;;;;;;14.68;7.30;;;;;;;;;;5070300;28;20016;-76
2022/06/03 00:15:39;;;;;;;12.27;7.13;;;;;;;;;;5070731;28;20500;-75
2022/06/03 00:18:23;;;;;;;14.82;8.05;;;;;;;;;;5072612;28;20029;-75
2022/06/03 00:21:09;;;;;;;9.80;6.45;;;;;;;;;;5069010;28;20048;-80
2022/06/03 00:23:53;;;;;;;12.48;6.97;;;;;;;;;;5070945;28;20118;-76
2022/06/03 00:26:20;;;;;;;11.95;6.55;;;;;;;;;;5069484;28;20367;-82
2022/06/03 00:29:12;;;;;;;16.17;6.50;;;;;;;;;;5074201;28;20025;-84
2022/06/03 00:31:56;;;;;;;9.35;6.13;;;;;;;;;;5068139;28;20062;-82
2022/06/03 00:34:22;;;;;;;12.70;6.13;;;;;;;;;;5071459;28;20469;-81
2022/06/03 00:37:07;;;;;;;9.05;5.80;;;;;;;;;;5069411;28;20021;-80
2022/06/03 00:39:42;;;;;;;11.95;6.22;;;;;;;;;;5073147;28;20024;-76
2022/06/03 00:42:11;;;;;;;8.70;5.53;;;;;;;;;;5073290;28;20485;-75
2022/06/03 00:44:43;;;;;;;12.02;5.32;;;;;;;;;;5069581;28;20029;-81
2022/06/03 00:47:33;;;;;;;13.25;6.28;;;;;;;;;;5065993;28;20021;-86
2022/06/03 00:50:09;;;;;;;12.75;6.53;;;;;;;;;;5058269;28;20040;-82
2022/06/03 00:52:41;;;;;;;13.60;5.85;;;;;;;;;;5071793;28;20035;-75
2022/06/03 00:55:14;;;;;;;9.20;5.35;;;;;;;;;;5073249;28;20049;-76
2022/06/03 00:57:59;;;;;;;9.48;4.82;;;;;;;;;;5068817;28;20479;-77
2022/06/03 01:00:27;;;;;;;8.30;4.38;;;;;;;;;;5067772;28;20035;-76
2022/06/03 01:03:12;;;;;;;10.25;5.47;;;;;;;;;;5072011;28;20097;-84
2022/06/03 01:06:04;;;;;;;10.20;6.43;;;;;;;;;;5068665;28;20069;-79
2022/06/03 01:08:43;;;;;;;14.23;8.35;;;;;;;;;;5071699;28;20118;-79
2022/06/03 01:11:16;;;;;;;14.48;8.68;;;;;;;;;;5072648;28;20029;-84
2022/06/03 01:13:52;;;;;;;18.10;9.60;;;;;;;;;;5067923;28;20039;-75
2022/06/03 01:16:18;;;;;;;15.40;9.60;;;;;;;;;;5074470;28;20447;-82
2022/06/03 01:18:57;;;;;;;13.25;9.13;;;;;;;;;;5066527;28;20035;-77
2022/06/03 01:21:55;;;;;;;13.60;9.07;;;;;;;;;;5073717;28;20028;-81
2022/06/03 01:24:30;;;;;;;13.82;8.65;;;;;;;;;;5022305;28;20386;-85
2022/06/03 01:27:15;;;;;;;10.80;7.13;;;;;;;;;;5067988;28;20067;-78
2022/06/03 01:30:00;;;;;;;14.15;7.43;;;;;;;;;;5067825;28;20112;-75
2022/06/03 01:32:35;;;;;;;14.60;7.30;;;;;;;;;;5066924;28;20413;-75
2022/06/03 01:35:20;;;;;;;15.77;7.38;;;;;;;;;;5070346;28;20032;-79
2022/06/03 01:37:49;;;;;;;13.10;7.97;;;;;;;;;;5073201;28;20032;-76
2022/06/03 01:40:18;;;;;;;15.43;7.50;;;;;;;;;;5065712;28;20032;-74
2022/06/03 01:42:44;;;;;;;14.15;7.38;;;;;;;;;;5070179;28;20021;-79
2022/06/03 01:45:29;;;;;;;11.43;7.10;;;;;;;;;;5068845;28;20033;-75
2022/06/03 01:48:10;;;;;;;16.70;7.30;;;;;;;;;;5073723;28;20024;-82
2022/06/03 01:50:56;;;;;;;13.05;7.22;;;;;;;;;;5069677;28;20475;-83
2022/06/03 01:53:22;;;;;;;11.30;6.93;;;;;;;;;;5072349;28;20086;-77
2022/06/03 01:56:07;;;;;;;10.52;5.97;;;;;;;;;;5076080;28;20526;-75
2022/06/03 01:58:33;;;;;;;11.88;5.53;;;;;;;;;;5073693;28;20036;-87
2022/06/03 02:01:20;;;;;;;9.48;4.57;;;;;;;;;;5077675;28;20027;-80
2022/06/03 02:04:00;;;;;;;8.35;4.70;;;;;;;;;;5077876;28;20043;-83
2022/06/03 02:06:32;;;;;;;7.13;4.90;;;;;;;;;;5074695;28;20020;-82
2022/06/03 02:09:09;;;;;;;10.30;5.43;;;;;;;;;;5074064;28;20520;-74
2022/06/03 02:11:38;;;;;;;10.77;5.70;;;;;;;;;;5074380;28;20029;-79
2022/06/03 02:14:19;;;;;;;12.48;5.53;;;;;;;;;;5073653;28;20023;-77
2022/06/03 02:17:01;;;;;;;9.48;5.10;;;;;;;;;;5076779;28;20025;-87
2022/06/03 02:19:27;;;;;;;11.70;5.65;;;;;;;;;;5075283;28;20441;-82
2022/06/03 02:22:02;;;;;;;7.55;4.07;;;;;;;;;;5077541;28;20013;-89
2022/06/03 02:24:46;;;;;;;5.90;4.18;;;;;;;;;;5071694;28;20050;-74
2022/06/03 02:27:22;;;;;;;6.65;3.50;;;;;;;;;;5072846;28;20024;-76
2022/06/03 02:30:25;;;;;;;10.57;4.25;;;;;;;;;;5075645;28;20024;-83
2022/06/03 02:33:09;;;;;;;9.30;5.07;;;;;;;;;;5077503;28;20032;-78
2022/06/03 02:35:42;;;;;;;11.48;5.32;;;;;;;;;;5076724;28;20016;-76
2022/06/03 02:38:17;;;;;;;8.02;5.30;;;;;;;;;;5078873;28;20042;-75
2022/06/03 02:41:21;;;;;;;8.00;5.22;;;;;;;;;;5080567;28;20055;-74
2022/06/03 02:44:01;;;;;;;12.35;4.82;;;;;;;;;;4985276;28;20482;-84
2022/06/03 02:46:30;;;;;;;10.35;4.18;;;;;;;;;;5000428;28;20026;-81
2022/06/03 02:49:02;;;;;;;7.38;3.70;;;;;;;;;;5040130;28;20086;-85
2022/06/03 02:51:34;;;;;;;7.03;3.90;;;;;;;;;;5076235;28;20027;-80
2022/06/03 02:54:03;;;;;;;9.45;4.22;;;;;;;;;;5075117;28;20069;-74
2022/06/03 02:56:58;;;;;;;9.43;4.20;;;;;;;;;;5075603;28;20024;-74
2022/06/03 02:59:40;;;;;;;10.65;4.22;;;;;;;;;;5065486;28;20155;-73
2022/06/03 03:02:25;;;;;;;8.60;4.55;;;;;;;;;;5076195;28;20032;-74
2022/06/03 03:05:00;;;;;;;10.23;4.00;;;;;;;;;;5070851;28;20448;-75
2022/06/03 03:07:45;;;;;;;9.80;4.03;;;;;;;;;;5074686;28;20478;-88
2022/06/03 03:10:18;;;;;;;6.82;4.20;;;;;;;;;;5074813;28;20024;-85
2022/06/03 03:12:47;;;;;;;7.32;4.78;;;;;;;;;;5078493;28;20016;-85
2022/06/03 03:15:22;;;;;;;9.57;5.30;;;;;;;;;;5070738;28;20024;-75
2022/06/03 03:17:48;;;;;;;13.63;5.65;;;;;;;;;;5078143;28;20024;-77
2022/06/03 03:20:33;;;;;;;13.00;5.90;;;;;;;;;;5070589;28;20035;-87
2022/06/03 03:22:59;;;;;;;11.05;5.50;;;;;;;;;;5065571;28;20020;-74
2022/06/03 03:25:28;;;;;;;14.18;6.72;;;;;;;;;;5063799;28;20399;-73
2022/06/03 03:27:54;;;;;;;11.93;6.35;;;;;;;;;;5065349;28;20286;-83
2022/06/03 03:30:25;;;;;;;13.60;6.88;;;;;;;;;;5065257;28;20027;-75
2022/06/03 03:33:06;;;;;;;9.75;6.13;;;;;;;;;;5064681;28;20465;-75
2022/06/03 03:35:48;;;;;;;13.48;6.85;;;;;;;;;;5063387;28;20036;-75
2022/06/03 03:38:43;;;;;;;14.55;6.80;;;;;;;;;;5064821;28;20032;-80
2022/06/03 03:41:19;;;;;;;12.85;7.53;;;;;;;;;;4991535;28;20031;-84
2022/06/03 03:43:54;;;;;;;15.10;7.15;;;;;;;;;;5076713;28;20043;-74
2022/06/03 03:46:26;;;;;;;13.27;6.88;;;;;;;;;;5082262;28;20024;-78
2022/06/03 03:49:11;;;;;;;11.75;7.38;;;;;;;;;;5084857;28;20020;-74
2022/06/03 03:51:53;;;;;;;12.95;6.82;;;;;;;;;;5071374;28;20030;-74
2022/06/03 03:54:39;;;;;;;10.10;6.43;;;;;;;;;;5083345;28;20031;-74
2022/06/03 03:57:18;;;;;;;11.57;6.35;;;;;;;;;;5085062;28;20081;-80
2022/06/03 03:59:56;;;;;;;9.93;5.50;;;;;;;;;;5084539;28;20381;-74
2022/06/03 04:02:41;;;;;;;12.40;6.47;;;;;;;;;;5084574;28;20052;-86
2022/06/03 04:05:26;;;;;;;12.02;5.75;;;;;;;;;;5084564;28;20061;-74
2022/06/03 04:08:13;;;;;;;11.30;5.50;;;;;;;;;;5084906;28;20024;-77
2022/06/03 04:10:42;;;;;;;12.55;4.80;;;;;;;;;;5073615;28;20031;-75
2022/06/03 04:13:14;;;;;;;16.55;5.95;;;;;;;;;;5084596;28;20102;-74
2022/06/03 04:15:59;;;;;;;11.07;6.10;;;;;;;;;;5084706;28;20032;-74
2022/06/03 04:18:51;;;;;;;19.33;6.13;;;;;;;;;;5084177;28;20043;-74
2022/06/03 04:21:24;;;;;;;14.70;5.38;;;;;;;;;;5080823;28;20044;-74
2022/06/03 04:24:10;;;;;;;8.48;5.80;;;;;;;;;;5084544;28;20533;-74
2022/06/03 04:26:50;;;;;;;10.05;5.90;;;;;;;;;;5085385;28;20036;-74
2022/06/03 04:29:34;;;;;;;10.73;5.35;;;;;;;;;;5084443;28;20510;-74
2022/06/03 04:32:19;;;;;;;21.02;6.18;;;;;;;;;;5084061;28;20036;-74
2022/06/03 04:35:00;;;;;;;10.55;5.47;;;;;;;;;;5083415;28;20045;-81
2022/06/03 04:37:45;;;;;;;9.32;6.00;;;;;;;;;;5084812;28;20028;-74
2022/06/03 04:40:30;;;;;;;13.98;6.75;;;;;;;;;;5084493;28;20016;-74
2022/06/03 04:43:14;;;;;;;13.57;7.00;;;;;;;;;;5084390;28;20024;-81
2022/06/03 04:45:47;;;;;;;13.07;6.38;;;;;;;;;;5082986;28;20028;-74
2022/06/03 04:48:31;;;;;;;13.38;6.32;;;;;;;;;;5071210;28;20472;-73
2022/06/03 04:51:16;;;;;;;10.93;6.82;;;;;;;;;;5083956;28;20082;-76
2022/06/03 04:53:42;;;;;;;13.80;6.07;;;;;;;;;;5084419;28;20269;-84
2022/06/03 04:56:21;;;;;;;13.38;6.40;;;;;;;;;;5083681;28;20029;-74
2022/06/03 04:59:13;;;;;;;11.55;6.75;;;;;;;;;;5083756;28;20500;-74
2022/06/03 05:01:51;;;;;;;15.98;7.07;;;;;;;;;;5043430;28;20115;-81
2022/06/03 05:04:40;;;;;;;14.85;7.22;;;;;;;;;;5082282;28;20281;-82
2022/06/03 05:07:27;;;;;;;12.45;6.80;;;;;;;;;;5081680;28;20522;-75
2022/06/03 05:09:53;;;;;;;17.15;7.80;;;;;;;;;;5080931;28;20024;-74
2022/06/03 05:12:38;;;;;;;11.15;6.97;;;;;;;;;;5083962;28;20024;-74
2022/06/03 05:15:04;;;;;;;17.95;8.00;;;;;;;;;;5084222;28;20355;-79
2022/06/03 05:17:49;;;;;;;12.35;7.07;;;;;;;;;;5083187;28;20567;-74
2022/06/03 05:20:33;;;;;;;12.15;7.47;;;;;;;;;;5079172;28;20028;-88
2022/06/03 05:22:59;;;;;;;13.30;7.57;;;;;;;;;;5076114;28;20480;-80
2022/06/03 05:25:43;;;;;;;11.40;7.00;;;;;;;;;;5084095;28;20020;-74
2022/06/03 05:28:13;;;;;;;14.10;7.63;;;;;;;;;;5077013;28;20024;-88
2022/06/03 05:30:54;;;;;;;14.70;7.45;;;;;;;;;;5086196;28;20232;-76
2022/06/03 05:33:26;;;;;;;14.88;7.75;;;;;;;;;;5087669;28;20035;-75
2022/06/03 05:36:11;;;;;;;28.48;8.77;;;;;;;;;;5069343;28;20456;-74
2022/06/03 05:39:15;;;;;;;14.30;7.65;;;;;;;;;;5074957;28;20040;-77
2022/06/03 05:45:03;;;;;;;15.10;7.88;;;;;;;;;;5083597;28;20059;-82
2022/06/03 05:47:38;;;;;;;18.63;7.82;;;;;;;;;;5081980;28;20028;-88
2022/06/03 05:50:11;;;;;;;19.33;8.93;;;;;;;;;;5086182;28;20027;-75
2022/06/03 05:52:52;;;;;;;18.23;9.73;;;;;;;;;;5078532;28;20024;-76
2022/06/03 05:55:36;;;;;;;16.90;9.00;;;;;;;;;;5076712;28;20127;-75
2022/06/03 05:58:15;;;;;;;15.07;9.73;;;;;;;;;;5073914;28;20059;-79
2022/06/03 06:00:50;;;;;;;20.33;9.32;;;;;;;;;;5075414;28;20025;-75
2022/06/03 06:03:30;;;;;;;17.75;9.50;;;;;;;;;;5074099;28;20052;-77
2022/06/03 06:06:11;;;;;;;24.60;10.05;;;;;;;;;;5072499;28;20032;-76
2022/06/03 06:08:55;;;;;;;18.83;10.63;;;;;;;;;;5077362;28;20386;-77
2022/06/03 06:11:31;;;;;;;21.92;10.02;;;;;;;;;;5086974;28;20027;-89
2022/06/03 06:14:18;;;;;;;23.30;11.20;;;;;;;;;;5083011;28;20024;-88
2022/06/03 06:16:46;;;;;;;22.42;11.25;;;;;;;;;;5081379;28;20034;-88
2022/06/03 06:19:12;;;;;;;18.80;9.63;;;;;;;;;;5074016;28;20039;-78
2022/06/03 06:21:38;;;;;;;19.15;9.30;;;;;;;;;;5068258;28;20049;-81
2022/06/03 06:24:19;;;;;;;20.60;11.40;;;;;;;;;;5073580;28;20020;-83
2022/06/03 06:26:45;;;;;;;16.63;10.80;;;;;;;;;;5084152;28;20028;-75
2022/06/03 06:29:32;;;;;;;19.88;10.60;;;;;;;;;;5084550;28;20116;-87
2022/06/03 06:32:07;;;;;;;19.20;11.18;;;;;;;;;;5084764;28;20036;-77
2022/06/03 06:34:52;;;;;;;20.27;10.82;;;;;;;;;;5083806;28;20232;-77
2022/06/03 06:37:18;;;;;;;21.13;11.30;;;;;;;;;;5084269;28;20039;-75
2022/06/03 06:39:57;;;;;;;18.42;10.32;;;;;;;;;;5077754;28;20032;-75
2022/06/03 06:42:35;;;;;;;17.33;9.63;;;;;;;;;;5080449;28;20066;-75
2022/06/03 06:45:01;;;;;;;19.35;10.23;;;;;;;;;;5085418;28;20028;-78
2022/06/03 06:47:41;;;;;;;16.10;10.27;;;;;;;;;;5084453;28;20052;-82
2022/06/03 06:50:10;;;;;;;15.02;10.05;;;;;;;;;;5086140;28;20028;-81
2022/06/03 06:52:41;;;;;;;19.33;9.80;;;;;;;;;;5086634;28;20023;-81
2022/06/03 06:55:09;;;;;;;14.60;8.68;;;;;;;;;;5084994;28;20486;-77
2022/06/03 06:57:46;;;;;;;17.70;8.68;;;;;;;;;;5086177;28;20024;-75
2022/06/03 07:00:24;;;;;;;24.92;10.18;;;;;;;;;;5072806;28;20024;-75
2022/06/03 07:02:50;;;;;;;29.30;16.52;;;;;;;;;;5085532;28;20051;-86
2022/06/03 07:05:35;;;;;;;22.45;14.73;;;;;;;;;;5085650;28;20020;-75
2022/06/03 07:08:07;;;;;;;20.48;11.88;;;;;;;;;;5085783;28;20020;-75
2022/06/03 07:10:52;;;;;;;20.50;11.48;;;;;;;;;;5084056;28;20020;-80
2022/06/03 07:13:33;;;;;;;17.65;10.10;;;;;;;;;;5085579;28;20385;-78
2022/06/03 07:16:08;;;;;;;15.43;10.10;;;;;;;;;;5085732;28;20460;-77
2022/06/03 07:21:22;;;;;;;15.95;8.38;;;;;;;;;;5086284;28;20051;-75
2022/06/03 07:23:55;;;;;;;19.75;9.63;;;;;;;;;;5084229;28;20070;-74
2022/06/03 07:26:36;;;;;;;14.07;7.95;;;;;;;;;;5085364;28;20016;-76
2022/06/03 07:29:11;;;;;;;15.23;9.02;;;;;;;;;;5071780;28;20095;-74
2022/06/03 07:31:49;;;;;;;15.98;7.50;;;;;;;;;;5085940;28;20028;-83
2022/06/03 07:34:15;;;;;;;15.52;7.45;;;;;;;;;;5084071;28;20036;-75
2022/06/03 07:36:47;;;;;;;11.90;7.13;;;;;;;;;;5085734;28;20032;-77
2022/06/03 07:39:19;;;;;;;14.55;6.82;;;;;;;;;;5082573;28;20074;-78
2022/06/03 07:41:55;;;;;;;10.73;6.75;;;;;;;;;;5073100;28;20035;-80
2022/06/03 07:44:27;;;;;;;17.58;7.43;;;;;;;;;;5085716;28;20028;-86
2022/06/03 07:47:00;;;;;;;12.85;6.90;;;;;;;;;;5075781;28;20024;-88
2022/06/03 07:49:28;;;;;;;12.50;7.47;;;;;;;;;;5085454;28;20046;-75
2022/06/03 07:51:57;;;;;;;12.23;6.72;;;;;;;;;;5083514;28;20031;-77
2022/06/03 07:54:27;;;;;;;10.48;6.72;;;;;;;;;;5085598;28;20047;-75
2022/06/03 07:57:04;;;;;;;16.45;7.35;;;;;;;;;;5084961;28;20043;-84
2022/06/03 07:59:32;;;;;;;15.40;6.68;;;;;;;;;;5078051;28;20033;-74
2022/06/03 08:02:03;;;;;;;16.20;7.15;;;;;;;;;;5083105;28;20026;-75
2022/06/03 08:04:34;;;;;;;13.85;6.85;;;;;;;;;;5084740;28;20047;-75
2022/06/03 08:12:35;;;;;;;12.40;6.50;;;;;;;;;;5084650;28;20043;-76
2022/06/03 08:15:19;;;;;;;9.98;6.68;;;;;;;;;;5083023;28;20020;-78
2022/06/03 08:17:46;;;;;;;15.23;6.82;;;;;;;;;;5058800;28;20025;-77
2022/06/03 08:20:13;;;;;;;12.20;6.60;;;;;;;;;;5067441;28;20380;-79
2022/06/03 08:22:39;;;;;;;10.35;6.45;;;;;;;;;;5074858;28;20028;-77
2022/06/03 08:25:06;;;;;;;12.48;7.28;;;;;;;;;;5074871;28;20032;-80
2022/06/03 08:27:34;;;;;;;13.38;6.30;;;;;;;;;;5077814;28;20020;-82
2022/06/03 08:30:03;;;;;;;14.88;6.75;;;;;;;;;;5084001;28;20039;-75
2022/06/03 08:32:33;;;;;;;13.10;6.47;;;;;;;;;;5084156;28;20077;-76
2022/06/03 08:35:00;;;;;;;14.45;6.80;;;;;;;;;;5065849;28;20116;-81
2022/06/03 08:37:33;;;;;;;16.40;6.22;;;;;;;;;;5074822;28;20082;-75
2022/06/03 08:40:01;;;;;;;17.35;6.93;;;;;;;;;;5083843;28;20042;-81
2022/06/03 08:42:36;;;;;;;12.80;6.72;;;;;;;;;;5084129;28;20031;-84
2022/06/03 08:45:25;;;;;;;13.10;6.43;;;;;;;;;;5083014;28;20440;-87
2022/06/03 08:47:55;;;;;;;16.65;6.63;;;;;;;;;;5035524;28;20044;-77
2022/06/03 08:50:40;;;;;;;9.65;4.93;;;;;;;;;;5082220;28;20024;-81
2022/06/03 08:53:24;;;;;;;12.77;5.70;;;;;;;;;;5084027;28;20028;-75
2022/06/03 08:55:53;;;;;;;15.80;6.55;;;;;;;;;;5084508;28;20027;-76
2022/06/03 08:58:19;;;;;;;12.52;5.90;;;;;;;;;;5083757;28;20109;-80
2022/06/03 09:00:55;;;;;;;11.77;5.45;;;;;;;;;;5082564;28;20043;-76
2022/06/03 09:03:22;;;;;;;11.60;5.50;;;;;;;;;;5083690;28;20052;-84
2022/06/03 09:06:10;;;;;;;11.40;5.63;;;;;;;;;;5087031;28;20037;-75
2022/06/03 09:08:39;;;;;;;10.77;5.57;;;;;;;;;;5086152;28;20042;-75
2022/06/03 09:11:14;;;;;;;11.15;5.07;;;;;;;;;;5085872;28;20451;-77
2022/06/03 09:13:40;;;;;;;9.00;5.28;;;;;;;;;;5087565;28;20513;-76
2022/06/03 09:16:09;;;;;;;13.43;5.93;;;;;;;;;;5088139;28;20058;-75
2022/06/03 09:18:37;;;;;;;9.57;5.50;;;;;;;;;;5087701;28;20621;-77
2022/06/03 09:21:06;;;;;;;11.30;6.15;;;;;;;;;;5085973;28;20035;-76
2022/06/03 09:23:54;;;;;;;12.68;5.90;;;;;;;;;;5088078;28;20028;-75
2022/06/03 09:26:20;;;;;;;10.77;5.85;;;;;;;;;;5075323;28;20289;-78
2022/06/03 09:28:47;;;;;;;12.82;5.60;;;;;;;;;;5087268;28;20062;-84
2022/06/03 09:31:13;;;;;;;14.50;6.13;;;;;;;;;;5087721;28;20016;-75
2022/06/03 09:33:40;;;;;;;17.15;6.20;;;;;;;;;;5086246;28;20034;-76
2022/06/03 09:36:13;;;;;;;17.88;6.18;;;;;;;;;;5086023;28;20428;-79
2022/06/03 09:38:58;;;;;;;10.95;5.70;;;;;;;;;;5087555;28;20044;-76
2022/06/03 09:41:27;;;;;;;12.45;5.57;;;;;;;;;;5087706;28;20506;-77
2022/06/03 09:43:54;;;;;;;13.05;5.40;;;;;;;;;;5085464;28;20491;-87
2022/06/03 09:46:22;;;;;;;16.60;6.18;;;;;;;;;;5087639;28;20055;-85
2022/06/03 09:48:49;;;;;;;11.77;5.55;;;;;;;;;;5086272;28;20050;-81
2022/06/03 09:51:20;;;;;;;8.80;4.85;;;;;;;;;;5086345;28;20111;-76
2022/06/03 09:53:47;;;;;;;15.23;5.57;;;;;;;;;;5086875;28;20555;-77
2022/06/03 09:56:20;;;;;;;14.35;5.60;;;;;;;;;;5087606;28;20070;-78
2022/06/03 09:58:47;;;;;;;10.48;4.65;;;;;;;;;;5087188;28;20036;-75
2022/06/03 10:01:13;;;;;;;22.45;5.40;;;;;;;;;;5086895;28;20063;-76
2022/06/03 10:03:39;;;;;;;17.73;5.22;;;;;;;;;;5087222;28;20131;-75
2022/06/03 10:06:42;;;;;;;10.55;4.88;;;;;;;;;;5086928;28;20020;-80
2022/06/03 10:14:21;;;;;;;14.65;5.32;;;;;;;;;;5087711;28;20549;-86
2022/06/03 10:16:47;;;;;;;13.10;5.10;;;;;;;;;;5086509;28;20032;-79
2022/06/03 10:19:13;;;;;;;16.52;5.20;;;;;;;;;;5086870;28;20036;-76
2022/06/03 10:21:49;;;;;;;11.80;5.13;;;;;;;;;;5085028;28;20172;-84
2022/06/03 10:24:15;;;;;;;10.00;4.72;;;;;;;;;;5082390;28;20115;-85
2022/06/03 10:26:50;;;;;;;14.90;5.10;;;;;;;;;;5077003;28;20035;-88
2022/06/03 10:29:20;;;;;;;12.25;5.50;;;;;;;;;;5086839;28;20028;-86
2022/06/03 10:31:51;;;;;;;9.98;4.63;;;;;;;;;;5085544;28;20051;-75
2022/06/03 10:34:21;;;;;;;10.73;5.45;;;;;;;;;;5086481;28;20034;-75
2022/06/03 10:36:49;;;;;;;11.40;4.80;;;;;;;;;;5086866;28;20063;-77
2022/06/03 10:39:19;;;;;;;17.27;5.70;;;;;;;;;;5086549;28;20071;-76
2022/06/03 10:41:46;;;;;;;11.95;5.40;;;;;;;;;;5086608;28;20020;-83
2022/06/03 10:44:23;;;;;;;11.00;5.47;;;;;;;;;;5084650;28;20087;-82
2022/06/03 10:46:53;;;;;;;16.75;5.68;;;;;;;;;;5086517;28;20051;-75
2022/06/03 10:49:21;;;;;;;15.97;5.13;;;;;;;;;;5086520;28;20115;-75
2022/06/03 11:02:48;;;;;;;12.20;4.53;;;;;;;;;;5086176;28;20129;-75
2022/06/03 11:05:21;;;;;;;18.92;5.00;;;;;;;;;;5085776;28;20024;-76
2022/06/03 11:08:07;;;;;;;10.70;4.18;;;;;;;;;;5085920;28;20488;-75
2022/06/03 11:10:40;;;;;;;15.75;5.30;;;;;;;;;;5066644;28;20048;-76
2022/06/03 11:13:07;;;;;;;16.73;4.85;;;;;;;;;;5080282;28;20127;-76
2022/06/03 11:15:36;;;;;;;8.00;4.47;;;;;;;;;;5085744;28;20148;-76
2022/06/03 11:18:17;;;;;;;14.77;5.20;;;;;;;;;;5086020;28;20028;-75
2022/06/03 11:20:44;;;;;;;9.48;4.85;;;;;;;;;;5071009;28;20077;-75
2022/06/03 11:23:11;;;;;;;10.88;4.55;;;;;;;;;;5085543;28;20027;-76
2022/06/03 11:25:39;;;;;;;7.93;4.15;;;;;;;;;;5071583;28;20368;-88
2022/06/03 11:28:05;;;;;;;10.63;4.47;;;;;;;;;;5083313;28;20028;-76
2022/06/03 11:30:34;;;;;;;11.77;5.22;;;;;;;;;;5085436;28;20047;-76
2022/06/03 11:33:06;;;;;;;11.95;4.60;;;;;;;;;;5085410;28;20110;-77
2022/06/03 11:35:37;;;;;;;8.48;4.28;;;;;;;;;;5085279;28;20161;-76
2022/06/03 11:38:05;;;;;;;15.27;4.60;;;;;;;;;;5085117;28;20537;-76
2022/06/03 11:40:35;;;;;;;9.70;4.88;;;;;;;;;;5085449;28;20400;-75
2022/06/03 11:43:09;;;;;;;13.45;5.00;;;;;;;;;;5083598;28;20375;-75
2022/06/03 11:45:40;;;;;;;11.93;4.65;;;;;;;;;;5085346;28;20032;-82
2022/06/03 11:48:20;;;;;;;11.50;5.13;;;;;;;;;;5085328;28;20016;-76
2022/06/03 11:50:46;;;;;;;21.90;4.97;;;;;;;;;;5085027;28;20028;-80
2022/06/03 11:53:13;;;;;;;10.30;4.60;;;;;;;;;;5084789;28;20008;-75
2022/06/03 11:55:40;;;;;;;13.32;4.82;;;;;;;;;;5083838;28;20026;-75
2022/06/03 11:58:11;;;;;;;11.40;4.63;;;;;;;;;;5085002;28;20480;-76
2022/06/03 12:00:48;;;;;;;8.80;3.97;;;;;;;;;;5084382;28;20016;-75
2022/06/03 12:03:33;;;;;;;11.93;4.25;;;;;;;;;;5083627;28;20120;-87
2022/06/03 12:06:02;;;;;;;13.52;4.93;;;;;;;;;;5084638;28;20028;-76
2022/06/03 12:08:34;;;;;;;9.25;4.55;;;;;;;;;;5084712;28;20217;-76
2022/06/03 12:11:06;;;;;;;13.98;5.40;;;;;;;;;;5084650;28;20314;-80
2022/06/03 12:13:33;;;;;;;9.93;4.53;;;;;;;;;;5082901;28;20027;-78
2022/06/03 12:16:01;;;;;;;13.13;5.20;;;;;;;;;;5084289;28;20036;-75
2022/06/03 12:18:39;;;;;;;11.18;5.18;;;;;;;;;;5084433;28;20072;-87
2022/06/03 12:21:08;;;;;;;16.17;5.90;;;;;;;;;;5084780;28;20020;-80
2022/06/03 12:23:34;;;;;;;9.98;4.65;;;;;;;;;;5084202;28;20020;-76
2022/06/03 12:26:00;;;;;;;10.10;4.50;;;;;;;;;;5068806;28;20146;-87
2022/06/03 12:28:32;;;;;;;13.85;4.97;;;;;;;;;;5084647;28;20024;-78
2022/06/03 12:31:24;;;;;;;12.98;4.80;;;;;;;;;;5083554;28;20483;-76
2022/06/03 12:34:05;;;;;;;13.88;4.70;;;;;;;;;;5081208;28;20101;-88
2022/06/03 12:36:52;;;;;;;13.43;4.88;;;;;;;;;;5084047;28;20515;-76
2022/06/03 12:39:18;;;;;;;12.43;5.40;;;;;;;;;;5083861;28;20055;-82
2022/06/03 12:41:44;;;;;;;11.55;5.15;;;;;;;;;;5084188;28;20020;-78
2022/06/03 12:44:31;;;;;;;16.38;4.85;;;;;;;;;;5084374;28;20024;-75
2022/06/03 12:47:17;;;;;;;10.75;4.35;;;;;;;;;;5041636;28;20032;-76
2022/06/03 12:49:48;;;;;;;11.90;5.25;;;;;;;;;;5081538;28;20470;-76
2022/06/03 12:52:26;;;;;;;12.10;4.97;;;;;;;;;;5084553;28;20043;-75
2022/06/03 12:55:07;;;;;;;15.30;4.70;;;;;;;;;;5084359;28;20027;-87
2022/06/03 12:57:51;;;;;;;9.13;4.40;;;;;;;;;;5084255;28;20020;-79
2022/06/03 13:00:20;;;;;;;16.08;4.90;;;;;;;;;;5064618;28;20083;-77
2022/06/03 13:03:05;;;;;;;14.60;4.38;;;;;;;;;;5077588;28;20044;-76
2022/06/03 13:05:47;;;;;;;11.90;4.63;;;;;;;;;;5072357;28;20067;-77
2022/06/03 13:08:29;;;;;;;12.85;4.35;;;;;;;;;;5083753;28;20024;-77
2022/06/03 13:10:58;;;;;;;12.00;4.85;;;;;;;;;;5083272;28;20085;-75
2022/06/03 13:13:31;;;;;;;10.65;5.00;;;;;;;;;;5084399;28;20081;-75
2022/06/03 13:16:00;;;;;;;13.27;4.60;;;;;;;;;;5083983;28;20035;-86
2022/06/03 13:18:36;;;;;;;11.15;4.18;;;;;;;;;;5083680;28;20484;-86
2022/06/03 13:21:02;;;;;;;11.05;4.70;;;;;;;;;;5084270;28;20031;-88
2022/06/03 13:23:53;;;;;;;9.35;4.78;;;;;;;;;;5083328;28;20038;-75
2022/06/03 13:26:23;;;;;;;8.10;4.15;;;;;;;;;;5071398;28;20032;-78
2022/06/03 13:28:50;;;;;;;10.88;5.65;;;;;;;;;;5083881;28;20282;-75
2022/06/03 13:31:16;;;;;;;13.38;4.70;;;;;;;;;;5083736;28;20032;-75
2022/06/03 13:34:01;;;;;;;16.92;5.50;;;;;;;;;;5084140;28;20028;-78
2022/06/03 13:36:38;;;;;;;8.30;4.22;;;;;;;;;;5070265;28;20101;-76
2022/06/03 13:39:10;;;;;;;14.57;4.28;;;;;;;;;;5080819;28;20476;-81
2022/06/03 13:44:36;;;;;;;10.27;4.43;;;;;;;;;;5083673;28;20458;-75
2022/06/03 13:47:05;;;;;;;15.50;4.35;;;;;;;;;;5082731;28;20043;-76
2022/06/03 13:49:32;;;;;;;14.50;4.35;;;;;;;;;;5083446;28;20024;-77
2022/06/03 13:52:05;;;;;;;8.88;3.90;;;;;;;;;;5086665;28;20043;-75
2022/06/03 13:54:39;;;;;;;13.38;4.15;;;;;;;;;;5086132;28;20081;-75
2022/06/03 13:57:29;;;;;;;8.23;4.07;;;;;;;;;;5087875;28;20028;-88
2022/06/03 14:00:11;;;;;;;15.05;4.82;;;;;;;;;;5086985;28;20468;-75
2022/06/03 14:02:38;;;;;;;11.60;3.80;;;;;;;;;;5087094;28;20040;-84
2022/06/03 14:05:07;;;;;;;15.13;4.13;;;;;;;;;;5085265;28;20372;-76
2022/06/03 14:07:44;;;;;;;9.32;3.67;;;;;;;;;;5086972;28;20020;-75
2022/06/03 14:10:18;;;;;;;14.57;4.10;;;;;;;;;;5086799;28;20476;-81
2022/06/03 14:12:54;;;;;;;15.13;4.95;;;;;;;;;;5087038;28;20043;-76
2022/06/03 14:15:32;;;;;;;13.48;4.00;;;;;;;;;;5086142;28;20427;-75
2022/06/03 14:17:59;;;;;;;10.40;4.07;;;;;;;;;;5087174;28;20038;-76
2022/06/03 14:20:36;;;;;;;13.95;4.50;;;;;;;;;;5086601;28;20031;-75
2022/06/03 14:23:17;;;;;;;10.27;4.13;;;;;;;;;;5086707;28;20119;-75
2022/06/03 14:25:51;;;;;;;12.68;4.53;;;;;;;;;;5068107;28;20025;-75
2022/06/03 14:28:32;;;;;;;13.27;4.18;;;;;;;;;;5087153;28;20484;-80
2022/06/03 14:30:58;;;;;;;;;;;;;;;;;;5086839;28;20081;-76
2022/06/03 14:33:27;;;;;;;11.10;3.70;;;;;;;;;;5086271;28;20044;-78
2022/06/03 14:35:58;;;;;;;14.82;4.28;;;;;;;;;;5086580;28;20158;-77
2022/06/03 14:38:34;;;;;;;9.85;3.67;;;;;;;;;;5085147;28;20053;-75
2022/06/03 14:41:00;;;;;;;14.07;4.35;;;;;;;;;;5086827;28;20032;-75
2022/06/03 14:43:28;;;;;;;14.30;4.20;;;;;;;;;;5086216;28;20046;-75
2022/06/03 14:46:00;;;;;;;11.75;4.00;;;;;;;;;;5086032;28;20056;-77
2022/06/03 14:48:34;;;;;;;13.88;3.90;;;;;;;;;;5086157;28;20024;-76
2022/06/03 14:51:10;;;;;;;10.15;3.53;;;;;;;;;;5084203;28;20036;-85
2022/06/03 14:53:39;;;;;;;18.33;4.00;;;;;;;;;;5086284;28;20035;-75
2022/06/03 14:56:31;;;;;;;13.75;4.63;;;;;;;;;;5086119;28;20476;-87
2022/06/03 14:59:00;;;;;;;17.55;4.65;;;;;;;;;;5053354;28;20394;-86
2022/06/03 15:01:46;;;;;;;13.15;4.35;;;;;;;;;;5086190;28;20032;-83
2022/06/03 15:04:18;;;;;;;12.27;4.13;;;;;;;;;;5086010;28;20139;-87
2022/06/03 15:07:05;;;;;;;13.65;3.70;;;;;;;;;;5086266;28;20024;-87
2022/06/03 15:09:51;;;;;;;16.10;4.60;;;;;;;;;;5084236;28;20035;-80
2022/06/03 15:12:25;;;;;;;12.50;4.07;;;;;;;;;;5073289;28;20391;-81
2022/06/03 15:14:53;;;;;;;15.82;4.20;;;;;;;;;;5085422;28;20131;-90
2022/06/03 15:17:23;;;;;;;20.85;5.05;;;;;;;;;;5086045;28;20024;-85
2022/06/03 15:19:52;;;;;;;15.53;3.93;;;;;;;;;;5086067;28;20618;-86
2022/06/03 15:22:19;;;;;;;12.57;4.50;;;;;;;;;;5084465;28;20052;-79
2022/06/03 15:24:49;;;;;;;11.82;3.70;;;;;;;;;;5076925;28;20477;-77
2022/06/03 15:27:15;;;;;;;15.77;4.57;;;;;;;;;;5081944;28;20283;-80
2022/06/03 15:29:42;;;;;;;12.05;4.18;;;;;;;;;;5061620;28;20027;-82
2022/06/03 15:32:08;;;;;;;9.45;4.13;;;;;;;;;;5068233;28;20484;-84
2022/06/03 15:34:35;;;;;;;14.35;4.72;;;;;;;;;;5070663;28;20054;-80
2022/06/03 15:37:02;;;;;;;10.40;3.97;;;;;;;;;;5074725;28;20024;-85
2022/06/03 15:39:30;;;;;;;11.00;3.55;;;;;;;;;;5071526;28;20066;-76
2022/06/03 15:41:58;;;;;;;8.75;3.20;;;;;;;;;;5073294;28;20017;-87
2022/06/03 15:44:31;;;;;;;12.07;4.78;;;;;;;;;;5072146;28;20056;-78
2022/06/03 15:46:59;;;;;;;9.00;3.70;;;;;;;;;;5071259;28;20020;-76
2022/06/03 15:49:26;;;;;;;9.18;3.80;;;;;;;;;;5075178;28;20055;-75